Time,TemperatureF,DewpointF,PressureIn,WindDirection,WindDirectionDegrees,WindSpeedMPH,WindSpeedGustMPH,Humidity,HourlyPrecipIn,Conditions,Clouds,dailyrainin,SoftwareType,DateUTC
2013-08-09 00:00:00,75.0,65.3,29.93,WSW,247,1.7,-999.0,72,-99.99,,,0.00,Acu-Link.com,2013-08-09 10:00:00,
2013-08-09 00:15:00,75.0,66.1,29.92,NNE,22,0.0,-999.0,74,-99.99,,,0.00,Acu-Link.com,2013-08-09 10:15:00,
2013-08-09 00:31:00,75.0,66.1,29.94,SW,225,2.2,-999.0,74,-99.99,,,0.00,Acu-Link.com,2013-08-09 10:31:00,
2013-08-09 00:46:00,74.8,66.3,29.93,NE,45,0.0,-999.0,75,-99.99,,,0.00,Acu-Link.com,2013-08-09 10:46:00,
2013-08-09 01:01:00,74.5,66.8,29.91,NNE,22,2.2,-999.0,77,-99.99,,,0.00,Acu-Link.com,2013-08-09 11:01:00,
2013-08-09 01:17:00,73.9,66.2,29.91,West,270,2.2,-999.0,77,-99.99,,,0.00,Acu-Link.com,2013-08-09 11:17:00,
2013-08-09 01:32:00,73.4,65.7,29.91,NNE,22,0.0,-999.0,77,-99.99,,,0.00,Acu-Link.com,2013-08-09 11:32:00,
2013-08-09 01:47:00,73.4,65.4,29.90,NE,45,1.1,-999.0,76,-99.99,,,0.00,Acu-Link.com,2013-08-09 11:47:00,
2013-08-09 02:02:00,73.4,65.7,29.90,WSW,247,0.0,-999.0,77,-99.99,,,0.00,Acu-Link.com,2013-08-09 12:02:00,
2013-08-09 02:18:00,73.4,65.4,29.92,NE,45,0.0,-999.0,76,-99.99,,,0.00,Acu-Link.com,2013-08-09 12:18:00,
2013-08-09 02:33:00,73.9,65.1,29.91,West,270,0.0,-999.0,74,-99.99,,,0.00,Acu-Link.com,2013-08-09 12:33:00,
2013-08-09 02:48:00,73.4,65.7,29.90,NE,45,0.0,-999.0,77,-99.99,,,0.00,Acu-Link.com,2013-08-09 12:48:00,
2013-08-09 03:04:00,72.9,65.6,29.90,NE,45,0.0,-999.0,78,-99.99,,,0.00,Acu-Link.com,2013-08-09 13:04:00,
2013-08-09 03:19:00,72.3,65.4,29.88,ENE,67,0.0,-999.0,79,-99.99,,,0.00,Acu-Link.com,2013-08-09 13:19:00,
2013-08-09 03:34:00,72.3,65.0,29.89,East,90,0.0,-999.0,78,-99.99,,,0.00,Acu-Link.com,2013-08-09 13:34:00,
2013-08-09 06:31:00,73.0,66.5,29.91,East,90,1.1,-999.0,80,-99.99,,,0.00,Acu-Link.com,2013-08-09 16:31:00,
2013-08-09 06:47:00,73.2,68.1,29.90,NNE,22,0.0,-999.0,84,-99.99,,,0.00,Acu-Link.com,2013-08-09 16:47:00,
2013-08-09 07:02:00,72.1,68.3,29.90,NNE,22,0.0,-999.0,88,-99.99,,,0.00,Acu-Link.com,2013-08-09 17:02:00,
2013-08-09 07:17:00,71.4,67.7,29.91,NNE,22,0.0,-999.0,88,-99.99,,,0.00,Acu-Link.com,2013-08-09 17:17:00,
2013-08-09 07:32:00,71.4,70.8,29.92,NNE,22,0.0,-999.0,98,-99.99,,,0.00,Acu-Link.com,2013-08-09 17:32:00,
2013-08-09 07:47:00,71.8,71.2,29.91,NNE,22,0.0,-999.0,98,-99.99,,,0.00,Acu-Link.com,2013-08-09 17:47:00,
2013-08-09 08:03:00,71.8,71.2,29.93,NNE,22,0.0,-999.0,98,-99.99,,,0.00,Acu-Link.com,2013-08-09 18:03:00,
2013-08-09 08:18:00,72.1,70.0,29.92,NNE,22,0.0,-999.0,93,-99.99,,,0.00,Acu-Link.com,2013-08-09 18:18:00,
2013-08-09 08:33:00,73.4,70.3,29.91,NNE,22,0.0,-999.0,90,-99.99,,,0.00,Acu-Link.com,2013-08-09 18:33:00,
2013-08-09 08:49:00,74.8,70.3,29.93,NNW,337,0.0,-999.0,86,-99.99,,,0.00,Acu-Link.com,2013-08-09 18:49:00,
2013-08-09 09:04:00,77.0,70.7,29.92,NNW,337,0.0,-999.0,81,-99.99,,,0.00,Acu-Link.com,2013-08-09 19:04:00,
2013-08-09 09:19:00,80.4,70.5,29.91,NW,315,0.0,-999.0,72,-99.99,,,0.00,Acu-Link.com,2013-08-09 19:19:00,
2013-08-09 09:35:00,81.7,70.1,29.93,North,0,0.0,-999.0,68,-99.99,,,0.00,Acu-Link.com,2013-08-09 19:35:00,
2013-08-09 09:51:00,82.8,70.7,29.92,NW,315,0.0,-999.0,67,-99.99,,,0.00,Acu-Link.com,2013-08-09 19:51:00,
2013-08-09 10:06:00,85.5,70.5,29.93,WSW,247,1.7,-999.0,61,-99.99,,,0.00,Acu-Link.com,2013-08-09 20:06:00,
2013-08-09 10:23:00,84.6,68.7,29.93,NW,315,2.2,-999.0,59,-99.99,,,0.00,Acu-Link.com,2013-08-09 20:23:00,
2013-08-09 10:39:00,85.6,69.6,29.92,NW,315,0.0,-999.0,59,-99.99,,,0.00,Acu-Link.com,2013-08-09 20:39:00,
2013-08-09 10:54:00,87.3,70.2,29.90,NNE,22,1.7,-999.0,57,-99.99,,,0.00,Acu-Link.com,2013-08-09 20:54:00,
2013-08-09 11:10:00,87.3,70.2,29.88,West,270,3.7,-999.0,57,-99.99,,,0.00,Acu-Link.com,2013-08-09 21:10:00,
2013-08-09 11:25:00,87.8,69.0,29.90,SSW,202,1.7,-999.0,54,-99.99,,,0.00,Acu-Link.com,2013-08-09 21:25:00,
2013-08-09 11:41:00,86.9,71.3,29.88,South,180,2.2,-999.0,60,-99.99,,,0.00,Acu-Link.com,2013-08-09 21:41:00,
2013-08-09 11:56:00,87.1,70.0,29.90,SW,225,1.7,-999.0,57,-99.99,,,0.00,Acu-Link.com,2013-08-09 21:56:00,
2013-08-09 12:11:00,87.8,71.1,29.88,NNE,22,4.2,-999.0,58,-99.99,,,0.00,Acu-Link.com,2013-08-09 22:11:00,
2013-08-09 12:27:00,88.3,71.6,29.90,NNW,337,3.2,-999.0,58,-99.99,,,0.00,Acu-Link.com,2013-08-09 22:27:00,
2013-08-09 12:42:00,88.9,71.1,29.86,NNE,22,2.7,-999.0,56,-99.99,,,0.00,Acu-Link.com,2013-08-09 22:42:00,
2013-08-09 12:57:00,90.0,71.1,29.86,SW,225,2.2,-999.0,54,-99.99,,,0.00,Acu-Link.com,2013-08-09 22:57:00,
2013-08-09 13:12:00,91.4,71.8,29.86,North,0,1.7,-999.0,53,-99.99,,,0.00,Acu-Link.com,2013-08-09 23:12:00,
2013-08-09 13:28:00,90.9,71.4,29.86,West,270,1.7,-999.0,53,-99.99,,,0.00,Acu-Link.com,2013-08-09 23:28:00,
2013-08-09 13:43:00,89.4,71.1,29.86,WNW,292,3.2,-999.0,55,-99.99,,,0.00,Acu-Link.com,2013-08-09 23:43:00,
2013-08-09 13:58:00,90.7,70.0,29.85,SSW,202,3.2,-999.0,51,-99.99,,,0.00,Acu-Link.com,2013-08-09 23:58:00,
2013-08-09 14:14:00,90.1,71.2,29.83,NW,315,2.7,-999.0,54,-99.99,,,0.00,Acu-Link.com,2013-08-10 00:14:00,
2013-08-09 14:29:00,90.1,70.6,29.82,NNE,22,4.2,-999.0,53,-99.99,,,0.00,Acu-Link.com,2013-08-10 00:29:00,
2013-08-09 14:44:00,90.0,71.1,29.82,North,0,2.7,-999.0,54,-99.99,,,0.00,Acu-Link.com,2013-08-10 00:44:00,
2013-08-09 14:59:00,88.5,70.8,29.81,North,0,3.2,-999.0,56,-99.99,,,0.00,Acu-Link.com,2013-08-10 00:59:00,
2013-08-09 15:15:00,89.4,72.1,29.80,NNW,337,2.7,-999.0,57,-99.99,,,0.00,Acu-Link.com,2013-08-10 01:15:00,
2013-08-09 15:30:00,90.3,71.9,29.80,NNW,337,1.7,-999.0,55,-99.99,,,0.00,Acu-Link.com,2013-08-10 01:30:00,
2013-08-09 15:45:00,90.5,72.6,29.81,West,270,2.2,-999.0,56,-99.99,,,0.00,Acu-Link.com,2013-08-10 01:45:00,
2013-08-09 16:00:00,89.1,72.4,29.79,NE,45,4.7,-999.0,58,-99.99,,,0.00,Acu-Link.com,2013-08-10 02:00:00,
2013-08-09 16:15:00,88.7,73.0,29.79,ESE,112,1.7,-999.0,60,-99.99,,,0.00,Acu-Link.com,2013-08-10 02:15:00,
2013-08-09 16:31:00,87.3,72.2,29.79,NNE,22,1.7,-999.0,61,-99.99,,,0.00,Acu-Link.com,2013-08-10 02:31:00,
2013-08-09 16:46:00,87.3,72.7,29.79,SSW,202,2.7,-999.0,62,-99.99,,,0.00,Acu-Link.com,2013-08-10 02:46:00,
2013-08-09 17:01:00,85.6,72.0,29.79,WSW,247,2.2,-999.0,64,-99.99,,,0.00,Acu-Link.com,2013-08-10 03:01:00,
2013-08-09 17:17:00,85.3,71.7,29.79,ESE,112,1.7,-999.0,64,-99.99,,,0.00,Acu-Link.com,2013-08-10 03:17:00,
2013-08-09 17:32:00,85.1,72.0,29.78,East,90,1.7,-999.0,65,-99.99,,,0.00,Acu-Link.com,2013-08-10 03:32:00,
2013-08-09 17:47:00,84.6,72.8,29.80,SW,225,1.7,-999.0,68,-99.99,,,0.00,Acu-Link.com,2013-08-10 03:47:00,
2013-08-09 18:02:00,82.2,72.3,29.81,East,90,2.7,-999.0,72,-99.99,,,0.00,Acu-Link.com,2013-08-10 04:02:00,
2013-08-09 18:18:00,81.0,71.5,29.82,NW,315,0.0,-999.0,73,-99.99,,,0.00,Acu-Link.com,2013-08-10 04:18:00,
2013-08-09 18:33:00,80.6,71.5,29.83,West,270,1.7,-999.0,74,-99.99,,,0.00,Acu-Link.com,2013-08-10 04:33:00,
2013-08-09 18:48:00,80.1,71.0,29.81,NNE,22,0.0,-999.0,74,-99.99,,,0.00,Acu-Link.com,2013-08-10 04:48:00,
2013-08-09 19:03:00,79.5,71.3,29.84,WNW,292,0.0,-999.0,76,-99.99,,,0.00,Acu-Link.com,2013-08-10 05:03:00,
2013-08-09 19:19:00,78.6,71.1,29.83,NNW,337,1.7,-999.0,78,-99.99,,,0.00,Acu-Link.com,2013-08-10 05:19:00,
2013-08-09 19:34:00,77.7,70.7,29.85,NNW,337,0.0,-999.0,79,-99.99,,,0.00,Acu-Link.com,2013-08-10 05:34:00,
2013-08-09 19:49:00,77.9,70.5,29.85,NNE,22,2.2,-999.0,78,-99.99,,,0.00,Acu-Link.com,2013-08-10 05:49:00,
2013-08-09 20:04:00,77.9,70.5,29.84,West,270,2.2,-999.0,78,-99.99,,,0.00,Acu-Link.com,2013-08-10 06:04:00,
2013-08-09 20:20:00,77.5,71.2,29.88,NW,315,0.0,-999.0,81,-99.99,,,0.00,Acu-Link.com,2013-08-10 06:20:00,
2013-08-09 20:35:00,76.5,70.9,29.87,NNE,22,1.7,-999.0,83,-99.99,,,0.00,Acu-Link.com,2013-08-10 06:35:00,
2013-08-09 20:50:00,75.2,71.4,29.88,WNW,292,0.0,-999.0,88,-99.99,,,0.00,Acu-Link.com,2013-08-10 06:50:00,
2013-08-09 21:06:00,74.8,71.7,29.86,East,90,1.7,-999.0,90,-99.99,,,0.00,Acu-Link.com,2013-08-10 07:06:00,
2013-08-09 21:21:00,74.3,73.7,29.87,NNE,22,0.0,-999.0,98,-99.99,,,0.01,Acu-Link.com,2013-08-10 07:21:00,
2013-08-09 21:36:00,74.3,73.7,29.90,NNE,22,0.0,-999.0,98,-99.99,,,0.01,Acu-Link.com,2013-08-10 07:36:00,
2013-08-09 21:51:00,74.1,73.5,29.88,North,0,0.0,-999.0,98,-99.99,,,0.01,Acu-Link.com,2013-08-10 07:51:00,
2013-08-09 22:08:00,74.1,73.5,29.88,East,90,0.0,-999.0,98,-99.99,,,0.02,Acu-Link.com,2013-08-10 08:08:00,
2013-08-09 22:23:00,73.9,73.3,29.91,SSW,202,0.0,-999.0,98,-99.99,,,0.02,Acu-Link.com,2013-08-10 08:23:00,
2013-08-09 22:38:00,73.9,73.3,29.89,NNW,337,0.0,-999.0,98,-99.99,,,0.02,Acu-Link.com,2013-08-10 08:38:00,
2013-08-09 22:53:00,73.8,73.2,29.90,WSW,247,0.0,-999.0,98,-99.99,,,0.02,Acu-Link.com,2013-08-10 08:53:00,
2013-08-09 23:08:00,73.4,72.5,29.90,North,0,1.7,-999.0,97,-99.99,,,0.02,Acu-Link.com,2013-08-10 09:08:00,
2013-08-09 23:23:00,73.0,72.4,29.91,North,0,0.0,-999.0,98,-99.99,,,0.02,Acu-Link.com,2013-08-10 09:23:00,
2013-08-09 23:38:00,72.9,72.3,29.88,NW,315,0.0,-999.0,98,-99.99,,,0.02,Acu-Link.com,2013-08-10 09:38:00,
2013-08-09 23:53:00,72.9,72.3,29.89,North,0,0.0,-999.0,98,-99.99,,,0.02,Acu-Link.com,2013-08-10 09:53:00,